Time;durP1;ratioP1;P1;durP2;ratioP2;P2;SDS_P1;SDS_P2;PMS_P1;PMS_P2;Temp;Humidity;BMP_temperature;BMP_pressure;BME280_temperature;BME280_humidity;BME280_pressure;Samples;Min_cycle;Max_cycle;Signal;HPM_P1;HPM_P2
2022/04/06 00:02:25;;;;;;;3.53;1.40;;;20.30;55.20;;;;;;5012351;28;20121;-65
2022/04/06 00:04:51;;;;;;;3.85;1.33;;;20.20;55.10;;;;;;5012063;28;20129;-65
2022/04/06 00:07:17;;;;;;;3.60;1.30;;;20.20;55.10;;;;;;5012545;28;20152;-65
2022/04/06 00:09:42;;;;;;;4.38;1.48;;;20.20;55.10;;;;;;5011645;28;20416;-65
2022/04/06 00:12:08;;;;;;;4.28;1.20;;;20.20;55.10;;;;;;5011881;28;20033;-65
2022/04/06 00:14:35;;;;;;;4.05;1.20;;;20.20;55.10;;;;;;5012371;28;20049;-65
2022/04/06 00:17:04;;;;;;;5.03;1.38;;;20.20;55.00;;;;;;5011238;28;20053;-65
2022/04/06 00:19:30;;;;;;;2.53;1.10;;;20.20;55.10;;;;;;5012086;28;20408;-65
2022/04/06 00:21:56;;;;;;;4.90;1.40;;;20.20;55.10;;;;;;5011853;28;20500;-65
2022/04/06 00:24:21;;;;;;;4.82;1.40;;;20.20;55.10;;;;;;5011789;28;20046;-65
2022/04/06 00:26:47;;;;;;;4.47;1.90;;;20.20;55.10;;;;;;5011438;28;20050;-65
2022/04/06 00:29:12;;;;;;;3.50;1.35;;;20.20;55.10;;;;;;5015774;28;20165;-65
2022/04/06 00:31:38;;;;;;;3.17;1.10;;;20.20;55.10;;;;;;5014903;28;20042;-65
2022/04/06 00:34:03;;;;;;;2.58;1.10;;;20.20;55.10;;;;;;5015606;28;20138;-65
2022/04/06 00:36:29;;;;;;;3.63;1.48;;;20.20;55.00;;;;;;5015517;28;20439;-65
2022/04/06 00:38:55;;;;;;;4.32;1.52;;;20.10;55.00;;;;;;5013598;28;20153;-65
2022/04/06 00:41:21;;;;;;;3.13;1.38;;;20.10;55.00;;;;;;5015630;28;20053;-65
2022/04/06 00:44:10;;;;;;;3.67;1.45;;;20.10;55.00;;;;;;5015486;28;20054;-66
2022/04/06 00:46:36;;;;;;;3.75;1.30;;;20.10;54.90;;;;;;5034781;28;20056;-65
2022/04/06 00:49:01;;;;;;;3.53;1.70;;;20.10;55.00;;;;;;5035071;28;20049;-65
2022/04/06 00:51:27;;;;;;;3.40;1.40;;;20.10;55.00;;;;;;5035288;28;20052;-65
2022/04/06 00:53:52;;;;;;;4.30;1.70;;;20.10;55.00;;;;;;5034531;28;20338;-65
2022/04/06 00:56:18;;;;;;;3.33;1.20;;;20.10;55.00;;;;;;5034506;28;20052;-65
2022/04/06 00:58:44;;;;;;;2.70;1.25;;;20.10;55.00;;;;;;5033188;28;20050;-65
2022/04/06 01:01:09;;;;;;;2.67;1.20;;;20.10;55.00;;;;;;5035257;28;20060;-65
2022/04/06 01:03:34;;;;;;;5.55;1.33;;;20.10;55.00;;;;;;5035008;28;20084;-65
2022/04/06 01:06:00;;;;;;;4.50;1.90;;;20.10;55.00;;;;;;5033763;28;20042;-65
2022/04/06 01:08:26;;;;;;;3.65;0.98;;;20.00;54.90;;;;;;5033828;28;20041;-65
2022/04/06 01:10:51;;;;;;;4.53;1.50;;;20.10;55.00;;;;;;5034133;28;20049;-65
2022/04/06 01:13:17;;;;;;;3.50;1.33;;;20.00;54.90;;;;;;5033139;28;20041;-65
2022/04/06 01:15:42;;;;;;;4.85;1.42;;;20.00;54.90;;;;;;5034882;28;20042;-65
2022/04/06 01:18:08;;;;;;;3.58;1.40;;;20.00;54.90;;;;;;5035052;28;20042;-65
2022/04/06 01:20:34;;;;;;;4.00;1.50;;;20.00;54.80;;;;;;5033715;28;20061;-65
2022/04/06 01:22:59;;;;;;;5.10;1.60;;;20.00;54.90;;;;;;5034315;28;20480;-65
2022/04/06 01:25:27;;;;;;;3.95;1.40;;;20.00;54.90;;;;;;5034318;28;20044;-65
2022/04/06 01:27:53;;;;;;;4.15;1.20;;;20.00;54.90;;;;;;5033365;28;20064;-65
2022/04/06 01:30:18;;;;;;;4.35;1.33;;;20.00;54.90;;;;;;5034170;28;20626;-65
2022/04/06 01:32:44;;;;;;;5.00;1.40;;;20.00;54.90;;;;;;5034305;28;20081;-65
2022/04/06 01:35:10;;;;;;;3.40;1.30;;;20.00;54.80;;;;;;5033739;28;20053;-65
2022/04/06 01:37:36;;;;;;;3.38;1.10;;;20.00;54.80;;;;;;5034046;28;20042;-65
2022/04/06 01:40:05;;;;;;;3.55;1.35;;;20.00;54.90;;;;;;5033807;28;20071;-65
2022/04/06 01:42:31;;;;;;;4.10;1.10;;;20.00;54.90;;;;;;5033339;28;20038;-65
2022/04/06 01:44:58;;;;;;;2.95;1.20;;;20.00;54.90;;;;;;5034198;28;20041;-65
2022/04/06 01:47:23;;;;;;;4.53;1.40;;;20.00;54.90;;;;;;5034108;28;20098;-65
2022/04/06 01:52:33;;;;;;;4.20;1.33;;;20.00;54.80;;;;;;5034314;28;20045;-65
2022/04/06 01:55:01;;;;;;;4.55;1.13;;;20.00;54.80;;;;;;5032723;28;20037;-65
2022/04/06 01:57:27;;;;;;;3.17;1.15;;;20.00;54.80;;;;;;5033846;28;20042;-65
2022/04/06 01:59:53;;;;;;;4.32;1.70;;;20.00;54.80;;;;;;5033670;28;20512;-65
2022/04/06 02:02:19;;;;;;;2.78;1.20;;;20.00;54.80;;;;;;5033051;28;20144;-65
2022/04/06 02:04:44;;;;;;;4.72;1.27;;;20.00;54.80;;;;;;5031845;28;20500;-65
2022/04/06 02:07:10;;;;;;;4.32;1.67;;;20.00;54.70;;;;;;5033307;28;20042;-65
2022/04/06 02:09:36;;;;;;;3.30;1.20;;;20.00;54.70;;;;;;5033068;28;20041;-65
2022/04/06 02:12:02;;;;;;;4.18;1.20;;;20.00;54.70;;;;;;5033087;28;20042;-65
2022/04/06 02:14:28;;;;;;;2.78;1.05;;;20.00;54.70;;;;;;5033971;28;20064;-65
2022/04/06 02:16:53;;;;;;;3.88;1.38;;;20.00;54.70;;;;;;5031652;28;20048;-65
2022/04/06 02:19:19;;;;;;;3.08;1.38;;;20.10;54.70;;;;;;5033711;28;20044;-65
2022/04/06 02:21:44;;;;;;;2.83;1.00;;;20.10;54.70;;;;;;5033226;28;20499;-65
2022/04/06 02:24:10;;;;;;;3.67;1.02;;;20.10;54.70;;;;;;5032625;28;20069;-65
2022/04/06 02:26:35;;;;;;;3.90;1.60;;;20.10;54.60;;;;;;5033023;28;20050;-65
2022/04/06 02:29:01;;;;;;;4.53;1.30;;;20.10;55.10;;;;;;5032835;28;20057;-65
2022/04/06 02:31:27;;;;;;;3.33;0.90;;;20.10;54.60;;;;;;5032792;28;20041;-65
2022/04/06 02:33:52;;;;;;;3.22;1.05;;;20.10;54.60;;;;;;5032710;28;20040;-65
2022/04/06 02:36:18;;;;;;;3.20;1.17;;;20.10;54.60;;;;;;5033042;28;20503;-65
2022/04/06 02:38:44;;;;;;;3.67;1.02;;;20.10;54.60;;;;;;5032397;28;20106;-65
2022/04/06 02:41:10;;;;;;;2.90;1.30;;;20.10;54.50;;;;;;5032936;28;20075;-65
2022/04/06 02:43:35;;;;;;;4.15;1.23;;;20.10;54.60;;;;;;5033144;28;20132;-65
2022/04/06 02:46:01;;;;;;;3.00;1.20;;;20.10;54.60;;;;;;5032458;28;20045;-65
2022/04/06 02:48:27;;;;;;;3.47;1.35;;;20.10;54.80;;;;;;5033113;28;20171;-65
2022/04/06 02:50:52;;;;;;;2.95;1.30;;;20.10;54.50;;;;;;5031940;28;20057;-65
2022/04/06 02:53:18;;;;;;;2.38;1.25;;;20.20;54.60;;;;;;5032623;28;20116;-66
2022/04/06 02:55:43;;;;;;;3.15;1.10;;;20.10;54.50;;;;;;5032285;28;20073;-65
2022/04/06 02:58:09;;;;;;;3.15;1.10;;;20.20;54.50;;;;;;5032604;28;20042;-65
2022/04/06 03:00:35;;;;;;;4.10;1.25;;;20.20;54.50;;;;;;5032320;28;20037;-65
2022/04/06 03:03:01;;;;;;;2.88;1.13;;;20.20;54.50;;;;;;5032459;28;20061;-65
2022/04/06 03:05:27;;;;;;;2.50;1.10;;;20.20;54.50;;;;;;5032497;28;20475;-65
2022/04/06 03:07:52;;;;;;;4.30;1.17;;;20.20;54.50;;;;;;5032434;28;20091;-64
2022/04/06 03:10:19;;;;;;;3.35;1.08;;;20.20;54.40;;;;;;5032374;28;20489;-65
2022/04/06 03:12:45;;;;;;;2.88;0.90;;;20.20;54.50;;;;;;5031669;28;20048;-65
2022/04/06 03:15:11;;;;;;;2.50;0.98;;;20.20;54.50;;;;;;5032914;28;20041;-64
2022/04/06 03:17:36;;;;;;;2.60;1.00;;;20.20;54.40;;;;;;5032749;28;20045;-65
2022/04/06 03:20:03;;;;;;;3.25;1.00;;;20.20;54.40;;;;;;5031913;28;20085;-65
2022/04/06 03:22:29;;;;;;;3.60;1.00;;;20.20;55.10;;;;;;5032745;28;20045;-65
2022/04/06 03:24:54;;;;;;;2.95;1.17;;;20.20;54.30;;;;;;5032028;28;20096;-65
2022/04/06 03:27:20;;;;;;;2.78;0.85;;;20.20;54.30;;;;;;5031044;28;20051;-65
2022/04/06 03:29:45;;;;;;;3.13;1.27;;;20.20;54.30;;;;;;5031758;28;20059;-64
2022/04/06 03:32:11;;;;;;;4.35;1.23;;;20.20;54.30;;;;;;5032686;28;20049;-64
2022/04/06 03:34:37;;;;;;;4.05;1.30;;;20.20;54.40;;;;;;5031961;28;20049;-65
2022/04/06 03:37:03;;;;;;;3.10;1.10;;;20.30;54.40;;;;;;5032472;28;20485;-65
2022/04/06 03:39:28;;;;;;;2.58;0.88;;;20.20;54.30;;;;;;5031301;28;20045;-64
2022/04/06 03:41:54;;;;;;;2.72;1.20;;;20.30;54.40;;;;;;5031021;28;20046;-65
2022/04/06 03:44:19;;;;;;;3.67;1.10;;;20.20;54.30;;;;;;5032649;28;20048;-65
2022/04/06 03:46:45;;;;;;;3.92;1.00;;;20.30;54.30;;;;;;5031868;28;20053;-65
2022/04/06 03:49:10;;;;;;;2.63;1.00;;;20.30;54.30;;;;;;5032025;28;20053;-65
2022/04/06 03:51:36;;;;;;;3.65;1.10;;;20.30;54.30;;;;;;5032553;28;20160;-65
2022/04/06 03:54:01;;;;;;;3.33;1.25;;;20.30;54.30;;;;;;5032001;28;20041;-65
2022/04/06 03:56:27;;;;;;;2.15;1.00;;;20.30;54.30;;;;;;5031481;28;20065;-65
2022/04/06 03:58:52;;;;;;;2.50;1.02;;;20.30;54.30;;;;;;5032146;28;20480;-64
2022/04/06 04:01:18;;;;;;;2.50;1.05;;;20.30;54.30;;;;;;5032827;28;20046;-65
2022/04/06 04:03:43;;;;;;;3.38;1.05;;;20.30;54.30;;;;;;5035029;28;20085;-64
2022/04/06 04:06:09;;;;;;;3.45;1.02;;;20.30;54.30;;;;;;5035509;28;20404;-65
2022/04/06 04:08:34;;;;;;;4.30;1.20;;;20.30;54.20;;;;;;5035809;28;20049;-65
2022/04/06 04:11:00;;;;;;;2.65;1.00;;;20.30;54.30;;;;;;5034868;28;20041;-65
2022/04/06 04:13:25;;;;;;;2.65;0.77;;;20.30;54.20;;;;;;5035848;28;20049;-64
2022/04/06 04:15:51;;;;;;;4.20;1.20;;;20.30;54.30;;;;;;5034690;28;20076;-65
2022/04/06 04:18:16;;;;;;;3.70;1.23;;;20.30;54.20;;;;;;5036112;28;20045;-65
2022/04/06 04:20:45;;;;;;;2.90;0.98;;;20.30;54.20;;;;;;5035889;28;20119;-64
2022/04/06 04:23:13;;;;;;;2.78;1.10;;;20.30;54.20;;;;;;5035309;28;20088;-65
2022/04/06 04:25:39;;;;;;;2.25;0.82;;;20.30;54.20;;;;;;5035308;28;20049;-65
2022/04/06 04:28:05;;;;;;;3.03;1.10;;;20.30;54.20;;;;;;5035439;28;20052;-65
2022/04/06 04:30:31;;;;;;;5.03;1.05;;;20.30;54.20;;;;;;5034486;28;20057;-64
2022/04/06 04:32:56;;;;;;;2.38;0.90;;;20.30;54.10;;;;;;5035185;28;20072;-65
2022/04/06 04:35:22;;;;;;;3.08;1.17;;;20.30;54.10;;;;;;5035490;28;20046;-65
2022/04/06 04:37:47;;;;;;;3.72;1.05;;;20.30;54.20;;;;;;5034377;28;20046;-65
2022/04/06 04:40:16;;;;;;;3.85;0.80;;;20.30;54.20;;;;;;5035437;28;20397;-64
2022/04/06 04:42:42;;;;;;;2.97;1.00;;;20.30;54.10;;;;;;5035062;28;20037;-64
2022/04/06 04:45:08;;;;;;;2.25;0.95;;;20.30;54.10;;;;;;5034595;28;20045;-64
2022/04/06 04:47:34;;;;;;;4.05;1.02;;;20.30;54.10;;;;;;5035549;28;20496;-65
2022/04/06 04:50:00;;;;;;;3.03;1.20;;;20.30;54.10;;;;;;5034784;28;20128;-65
2022/04/06 04:52:25;;;;;;;3.72;1.10;;;20.30;54.10;;;;;;5035015;28;20044;-64
2022/04/06 04:54:51;;;;;;;2.58;0.93;;;20.30;54.10;;;;;;5034623;28;20045;-65
2022/04/06 04:57:17;;;;;;;3.38;1.00;;;20.30;54.10;;;;;;5034832;28;20480;-64
2022/04/06 04:59:42;;;;;;;4.90;1.17;;;20.30;54.10;;;;;;5034358;28;20045;-64
2022/04/06 05:02:08;;;;;;;3.63;1.00;;;20.30;54.00;;;;;;5034885;28;20049;-65
2022/04/06 05:04:33;;;;;;;3.15;1.00;;;20.30;54.00;;;;;;5034957;28;20037;-64
2022/04/06 05:06:58;;;;;;;3.00;0.95;;;20.30;54.10;;;;;;5034467;28;20049;-64
2022/04/06 05:09:24;;;;;;;3.33;1.20;;;20.30;54.00;;;;;;5035057;28;20084;-64
2022/04/06 05:11:50;;;;;;;3.13;0.98;;;20.40;54.00;;;;;;5034079;28;20102;-64
2022/04/06 05:14:15;;;;;;;2.58;1.00;;;20.40;54.10;;;;;;5033566;28;20069;-64
2022/04/06 05:16:41;;;;;;;2.17;0.77;;;20.30;54.00;;;;;;5035107;28;20104;-64
2022/04/06 05:19:06;;;;;;;2.83;1.10;;;20.30;54.00;;;;;;5033855;28;20464;-64
2022/04/06 05:21:32;;;;;;;2.80;0.88;;;20.30;54.00;;;;;;5034778;28;20046;-64
2022/04/06 05:23:58;;;;;;;4.00;0.93;;;20.40;54.00;;;;;;5034430;28;20500;-64
2022/04/06 05:26:23;;;;;;;2.50;1.10;;;20.40;54.00;;;;;;5033468;28;20059;-64
2022/04/06 05:28:49;;;;;;;3.35;1.10;;;20.40;54.00;;;;;;5033743;28;20485;-64
2022/04/06 05:31:14;;;;;;;4.70;1.50;;;20.40;54.00;;;;;;5034665;28;20053;-64
2022/04/06 05:33:40;;;;;;;2.88;1.00;;;20.40;54.00;;;;;;5034041;28;20041;-64
2022/04/06 05:36:05;;;;;;;5.32;1.40;;;20.40;54.00;;;;;;5034441;28;20076;-64
2022/04/06 05:38:34;;;;;;;2.63;1.00;;;20.40;54.00;;;;;;5034345;28;20125;-64
2022/04/06 05:41:01;;;;;;;4.55;1.35;;;20.40;54.00;;;;;;5032604;28;20396;-64
2022/04/06 05:43:26;;;;;;;3.10;1.20;;;20.40;54.00;;;;;;5034472;28;20135;-64
2022/04/06 05:45:52;;;;;;;2.50;0.90;;;20.40;54.00;;;;;;5033729;28;20481;-64
2022/04/06 05:48:17;;;;;;;4.00;0.95;;;20.40;54.00;;;;;;5033862;28;20048;-64
2022/04/06 05:50:43;;;;;;;3.10;1.00;;;20.40;54.60;;;;;;5033925;28;20049;-64
2022/04/06 05:53:08;;;;;;;2.78;0.93;;;20.40;54.00;;;;;;5034069;28;20050;-64
2022/04/06 05:55:34;;;;;;;2.13;0.80;;;20.40;53.90;;;;;;5033108;28;20092;-64
2022/04/06 05:58:00;;;;;;;2.25;1.08;;;20.40;53.90;;;;;;5033588;28;20104;-64
2022/04/06 06:00:25;;;;;;;3.00;1.00;;;20.40;53.90;;;;;;5033927;28;20034;-64
2022/04/06 06:02:51;;;;;;;2.78;0.90;;;20.50;53.90;;;;;;5033434;28;20088;-64
2022/04/06 06:05:17;;;;;;;2.38;1.00;;;20.50;53.90;;;;;;5033947;28;20117;-65
2022/04/06 06:07:42;;;;;;;3.75;1.00;;;20.50;53.90;;;;;;5033657;28;20199;-64
2022/04/06 06:10:08;;;;;;;3.55;1.02;;;20.50;53.90;;;;;;5033239;28;20085;-65
2022/04/06 06:12:34;;;;;;;3.45;1.00;;;20.50;53.90;;;;;;5033579;28;20037;-65
2022/04/06 06:15:01;;;;;;;4.07;1.00;;;20.50;53.80;;;;;;5033489;28;20130;-65
2022/04/06 06:17:26;;;;;;;1.95;0.80;;;20.50;53.80;;;;;;5033182;28;20053;-64
2022/04/06 06:19:52;;;;;;;2.03;0.80;;;20.50;53.80;;;;;;5033384;28;20408;-64
2022/04/06 06:22:17;;;;;;;3.42;0.98;;;20.50;53.90;;;;;;5032862;28;20037;-64
2022/04/06 06:24:43;;;;;;;3.30;0.70;;;20.50;53.80;;;;;;5032630;28;20365;-63
2022/04/06 06:27:08;;;;;;;3.92;1.10;;;20.50;53.80;;;;;;5033077;28;20041;-64
2022/04/06 06:29:34;;;;;;;2.40;0.93;;;20.60;53.80;;;;;;5031588;28;20494;-64
2022/04/06 06:32:00;;;;;;;3.88;1.10;;;20.60;53.80;;;;;;5033089;28;20044;-64
2022/04/06 06:34:25;;;;;;;2.83;0.80;;;20.60;53.80;;;;;;5033239;28;20049;-63
2022/04/06 06:36:51;;;;;;;2.83;0.95;;;20.60;53.80;;;;;;5032403;28;20048;-64
2022/04/06 06:39:16;;;;;;;2.03;0.63;;;20.60;53.80;;;;;;5033402;28;20081;-64
2022/04/06 06:41:43;;;;;;;2.72;1.00;;;20.60;53.80;;;;;;5032609;28;20045;-64
2022/04/06 06:44:08;;;;;;;3.47;1.02;;;20.60;53.80;;;;;;5032363;28;20049;-64
2022/04/06 06:46:34;;;;;;;4.53;1.08;;;20.60;53.80;;;;;;5033279;28;20429;-63
2022/04/06 06:49:03;;;;;;;3.53;1.00;;;20.60;53.90;;;;;;5032974;28;20091;-64
2022/04/06 06:51:30;;;;;;;2.67;0.95;;;20.60;53.80;;;;;;5032746;28;20069;-64
2022/04/06 06:53:56;;;;;;;3.97;1.20;;;20.70;53.80;;;;;;5026367;28;20405;-64
2022/04/06 06:56:22;;;;;;;2.88;0.73;;;20.60;53.90;;;;;;5012708;28;20050;-67
2022/04/06 06:58:47;;;;;;;2.85;1.10;;;20.70;53.90;;;;;;5017219;28;20438;-66
2022/04/06 07:01:13;;;;;;;4.25;0.90;;;20.70;53.90;;;;;;5021658;28;20538;-65
2022/04/06 07:03:38;;;;;;;3.42;1.23;;;20.70;54.00;;;;;;5022601;28;20037;-66
2022/04/06 07:06:04;;;;;;;2.05;1.08;;;20.70;54.20;;;;;;5026400;28;20058;-65
2022/04/06 07:08:30;;;;;;;2.92;0.90;;;20.70;54.30;;;;;;5032706;28;20106;-65
2022/04/06 07:10:57;;;;;;;3.40;1.00;;;20.70;54.30;;;;;;5031579;28;20132;-66
2022/04/06 07:13:23;;;;;;;3.53;1.00;;;20.70;54.40;;;;;;5032330;28;20045;-66
2022/04/06 07:15:49;;;;;;;3.38;1.10;;;20.70;54.50;;;;;;5032671;28;20053;-65
2022/04/06 07:18:17;;;;;;;3.08;1.10;;;20.80;54.60;;;;;;5025514;28;20060;-64
2022/04/06 07:20:43;;;;;;;3.65;0.98;;;20.80;54.60;;;;;;5014612;28;20042;-64
2022/04/06 07:23:08;;;;;;;2.72;0.90;;;20.80;54.50;;;;;;5012833;28;20045;-64
2022/04/06 07:25:34;;;;;;;3.53;1.02;;;20.80;54.30;;;;;;5017049;28;20075;-65
2022/04/06 07:28:00;;;;;;;3.63;0.93;;;20.80;54.20;;;;;;5022837;28;20038;-64
2022/04/06 07:30:25;;;;;;;2.40;0.80;;;20.80;54.20;;;;;;5020284;28;20117;-68
2022/04/06 07:32:51;;;;;;;3.15;1.00;;;20.80;54.30;;;;;;5011701;28;20481;-64
2022/04/06 07:35:17;;;;;;;4.45;1.15;;;20.80;54.50;;;;;;5015465;28;20117;-65
2022/04/06 07:37:45;;;;;;;5.82;1.00;;;20.80;54.50;;;;;;5026373;28;20576;-65
2022/04/06 07:40:14;;;;;;;4.90;0.93;;;20.80;54.50;;;;;;5033431;28;20105;-64
2022/04/06 07:42:39;;;;;;;4.85;1.10;;;20.80;54.60;;;;;;5031753;28;20377;-65
2022/04/06 07:45:18;;;;;;;4.53;0.90;;;20.80;54.60;;;;;;5023360;28;20515;-64
2022/04/06 07:47:49;;;;;;;3.78;1.15;;;20.90;54.80;;;;;;5025140;28;20034;-64
2022/04/06 07:50:15;;;;;;;2.88;1.05;;;20.90;55.20;;;;;;5026666;28;20133;-64
2022/04/06 07:52:41;;;;;;;6.55;1.45;;;20.90;54.80;;;;;;5025943;28;20121;-66
2022/04/06 07:55:07;;;;;;;4.40;1.30;;;20.90;54.80;;;;;;5027076;28;20145;-65
2022/04/06 07:57:32;;;;;;;2.72;0.93;;;20.90;54.80;;;;;;5024614;28;20030;-65
2022/04/06 07:59:58;;;;;;;3.53;0.98;;;20.90;54.80;;;;;;5022787;28;20038;-64
2022/04/06 08:02:23;;;;;;;3.33;0.95;;;20.90;54.70;;;;;;5014500;28;20083;-64
2022/04/06 08:04:50;;;;;;;3.25;0.85;;;20.90;54.60;;;;;;5017985;28;20052;-65
2022/04/06 08:07:16;;;;;;;4.05;1.00;;;20.90;54.50;;;;;;5025332;28;20052;-64
2022/04/06 08:09:41;;;;;;;3.50;0.90;;;20.90;54.40;;;;;;5034538;28;20136;-64
2022/04/06 08:12:07;;;;;;;2.75;1.05;;;20.90;54.40;;;;;;5034967;28;20042;-64
2022/04/06 08:14:32;;;;;;;2.65;0.95;;;20.90;54.40;;;;;;5035869;28;20046;-64
2022/04/06 08:16:58;;;;;;;4.32;0.75;;;20.90;54.40;;;;;;5035259;28;20392;-64
2022/04/06 08:19:24;;;;;;;2.53;1.05;;;20.90;54.40;;;;;;5035531;28;20100;-64
2022/04/06 08:21:50;;;;;;;3.67;0.90;;;20.90;54.30;;;;;;5031585;28;20042;-64
2022/04/06 08:24:16;;;;;;;1.83;1.00;;;20.90;54.20;;;;;;5023090;28;20046;-64
2022/04/06 08:26:41;;;;;;;6.75;1.27;;;20.90;54.00;;;;;;5023996;28;20045;-64
2022/04/06 08:29:07;;;;;;;4.70;1.40;;;20.90;54.00;;;;;;5034270;28;20061;-64
2022/04/06 08:31:32;;;;;;;3.60;1.17;;;20.90;54.00;;;;;;5035474;28;20501;-64
2022/04/06 08:33:58;;;;;;;2.95;1.10;;;20.90;54.00;;;;;;5035367;28;20124;-64
2022/04/06 08:36:23;;;;;;;3.65;1.30;;;20.90;53.90;;;;;;5034211;28;20136;-64
2022/04/06 08:38:49;;;;;;;4.43;1.45;;;20.90;53.80;;;;;;5035154;28;20493;-64
2022/04/06 08:41:16;;;;;;;6.03;1.70;;;20.90;53.70;;;;;;5035035;28;20041;-64
2022/04/06 08:43:42;;;;;;;3.83;1.52;;;20.90;53.60;;;;;;5034667;28;20056;-64
2022/04/06 08:46:09;;;;;;;5.88;1.73;;;20.90;53.50;;;;;;5024784;28;20104;-63
2022/04/06 08:48:35;;;;;;;7.45;1.55;;;21.00;53.50;;;;;;5022226;28;20100;-64
2022/04/06 08:51:00;;;;;;;3.60;1.67;;;20.90;53.40;;;;;;5014376;28;20050;-64
2022/04/06 08:53:26;;;;;;;5.95;1.77;;;21.00;53.40;;;;;;5015278;28;20042;-64
2022/04/06 08:55:52;;;;;;;6.15;1.95;;;21.00;53.20;;;;;;5014428;28;20041;-63
2022/04/06 08:58:17;;;;;;;5.68;1.70;;;21.00;53.10;;;;;;5014785;28;20088;-64
2022/04/06 09:00:43;;;;;;;6.28;1.38;;;21.00;52.90;;;;;;5027110;28;20080;-65
2022/04/06 09:03:08;;;;;;;4.05;1.65;;;21.00;52.90;;;;;;5034487;28;20514;-65
2022/04/06 09:05:34;;;;;;;4.10;1.40;;;21.00;52.90;;;;;;5032492;28;20042;-64
2022/04/06 09:08:00;;;;;;;5.18;1.40;;;21.00;52.80;;;;;;5034096;28;20065;-64
2022/04/06 09:10:36;;;;;;;4.35;1.48;;;21.00;52.70;;;;;;5032042;28;20087;-64
2022/04/06 09:13:20;;;;;;;7.05;1.63;;;21.00;52.50;;;;;;5033249;28;20534;-64
2022/04/06 09:15:46;;;;;;;4.70;1.63;;;21.00;52.10;;;;;;5034317;28;20045;-64
2022/04/06 09:18:11;;;;;;;4.38;1.67;;;21.00;51.80;;;;;;5034060;28;20056;-64
2022/04/06 09:20:37;;;;;;;7.28;1.80;;;21.00;51.60;;;;;;5027219;28;20124;-63
2022/04/06 09:23:03;;;;;;;3.83;1.20;;;21.00;51.60;;;;;;5033643;28;20063;-63
2022/04/06 09:25:35;;;;;;;6.68;1.60;;;21.00;51.60;;;;;;5029980;28;20056;-63
2022/04/06 09:28:11;;;;;;;7.50;1.50;;;21.00;51.60;;;;;;5031319;28;20048;-64
2022/04/06 09:30:41;;;;;;;5.97;1.50;;;21.00;51.70;;;;;;5030224;28;20089;-63
2022/04/06 09:33:12;;;;;;;7.20;1.38;;;21.00;51.80;;;;;;5023789;28;20070;-64
2022/04/06 09:35:37;;;;;;;7.18;1.52;;;21.00;51.80;;;;;;5023407;28;20096;-63
2022/04/06 09:38:23;;;;;;;5.57;1.20;;;21.00;51.90;;;;;;5023059;28;20033;-63
2022/04/06 09:40:50;;;;;;;6.97;1.38;;;21.00;51.80;;;;;;5023561;28;20113;-65
2022/04/06 09:43:29;;;;;;;7.57;1.40;;;21.00;52.00;;;;;;5020122;28;20037;-65
2022/04/06 09:48:59;;;;;;;4.50;1.20;;;21.10;52.30;;;;;;5027843;28;20049;-65
2022/04/06 09:51:25;;;;;;;6.05;1.40;;;21.10;52.50;;;;;;5034218;28;20050;-65
2022/04/06 09:53:52;;;;;;;5.95;1.40;;;21.10;52.60;;;;;;5033102;28;20111;-64
2022/04/06 09:56:18;;;;;;;5.75;1.30;;;21.10;52.60;;;;;;5033921;28;20041;-65
2022/04/06 09:58:44;;;;;;;4.22;1.50;;;21.10;52.70;;;;;;5033041;28;20076;-65
2022/04/06 10:01:09;;;;;;;8.70;1.48;;;21.10;52.80;;;;;;5033302;28;20045;-63
2022/04/06 10:03:36;;;;;;;5.30;1.15;;;21.10;52.70;;;;;;5032567;28;20515;-64
2022/04/06 10:06:02;;;;;;;4.68;1.10;;;21.10;52.80;;;;;;5031814;28;20168;-66
2022/04/06 10:08:27;;;;;;;4.07;1.20;;;21.10;52.90;;;;;;5016168;28;20561;-66
2022/04/06 10:10:56;;;;;;;6.75;1.20;;;21.20;53.00;;;;;;5012464;28;20120;-66
2022/04/06 10:13:21;;;;;;;;;;;21.10;53.00;;;;;;5013034;28;20045;-65
2022/04/06 10:15:47;;;;;;;4.63;1.10;;;21.10;53.00;;;;;;5013084;28;19922;-65
2022/04/06 10:18:12;;;;;;;4.82;1.10;;;21.10;53.00;;;;;;5013812;28;20085;-66
2022/04/06 10:20:59;;;;;;;4.72;1.20;;;21.20;53.30;;;;;;5013341;28;20046;-65
2022/04/06 10:23:52;;;;;;;3.72;0.90;;;21.20;53.30;;;;;;5012127;28;20096;-63
2022/04/06 10:26:20;;;;;;;4.10;0.90;;;21.20;53.20;;;;;;4999604;28;20452;-64
2022/04/06 10:28:49;;;;;;;4.72;1.20;;;21.20;53.20;;;;;;5012759;28;20116;-63
2022/04/06 10:31:27;;;;;;;;;;;21.20;53.20;;;;;;5014196;28;20053;-63
2022/04/06 10:34:13;;;;;;;;;;;21.20;53.20;;;;;;5013499;28;19922;-63
2022/04/06 10:36:40;;;;;;;4.30;0.98;;;21.20;53.20;;;;;;5012643;28;19921;-63
2022/04/06 10:39:06;;;;;;;4.28;1.30;;;21.20;53.20;;;;;;5013142;28;20389;-64
2022/04/06 10:41:39;;;;;;;3.08;1.20;;;21.10;53.10;;;;;;5012831;28;20501;-64
2022/04/06 10:44:04;;;;;;;4.13;1.15;;;21.20;53.10;;;;;;5012343;28;20475;-64
2022/04/06 10:46:40;;;;;;;2.88;1.02;;;21.20;53.10;;;;;;5013299;28;20125;-64
2022/04/06 10:49:05;;;;;;;4.63;0.98;;;21.10;53.10;;;;;;5012816;28;20053;-64
2022/04/06 10:52:01;;;;;;;4.18;1.00;;;21.20;53.20;;;;;;5012611;28;20137;-64
2022/04/06 10:54:39;;;;;;;2.97;1.05;;;21.20;53.20;;;;;;5013193;28;20128;-67
2022/04/06 10:57:05;;;;;;;4.20;1.25;;;21.10;53.20;;;;;;5028400;28;20046;-65
2022/04/06 10:59:30;;;;;;;4.57;1.20;;;21.20;53.30;;;;;;5024373;28;20048;-66
2022/04/06 11:02:18;;;;;;;5.85;0.95;;;21.20;53.30;;;;;;5022105;28;20037;-67
2022/04/06 11:04:44;;;;;;;3.47;1.00;;;21.20;53.40;;;;;;5022489;28;20038;-67
2022/04/06 11:07:09;;;;;;;3.00;1.00;;;21.10;53.40;;;;;;5021489;28;20044;-67
2022/04/06 11:12:26;;;;;;;3.28;1.15;;;21.20;53.50;;;;;;5031547;28;20049;-67
2022/04/06 11:14:57;;;;;;;3.25;0.98;;;21.20;53.60;;;;;;5031204;28;20045;-67
2022/04/06 11:17:32;;;;;;;3.88;1.08;;;21.10;53.60;;;;;;5030843;28;20444;-66
2022/04/06 11:20:21;;;;;;;2.90;1.00;;;21.10;53.70;;;;;;5031713;28;20041;-65
2022/04/06 11:22:53;;;;;;;3.88;1.30;;;21.10;53.80;;;;;;5043829;28;20112;-64
2022/04/06 11:25:23;;;;;;;3.75;0.85;;;21.20;53.90;;;;;;5031423;28;20046;-64
2022/04/06 11:27:48;;;;;;;3.55;1.10;;;21.20;53.80;;;;;;5032243;28;20034;-64
2022/04/06 11:30:16;;;;;;;3.25;0.95;;;21.20;53.90;;;;;;5031885;28;20102;-65
2022/04/06 11:32:51;;;;;;;3.70;0.88;;;21.20;53.90;;;;;;5032058;28;20091;-64
2022/04/06 11:35:17;;;;;;;4.30;0.90;;;21.20;53.90;;;;;;5032491;28;20088;-64
2022/04/06 11:37:46;;;;;;;3.25;1.00;;;21.20;54.00;;;;;;5031304;28;20077;-64
2022/04/06 11:40:12;;;;;;;2.00;0.77;;;21.20;54.00;;;;;;5031382;28;20075;-64
2022/04/06 11:42:38;;;;;;;2.67;1.00;;;21.20;54.00;;;;;;5032438;28;20042;-64
2022/04/06 11:45:04;;;;;;;2.80;0.90;;;21.20;54.10;;;;;;5031964;28;20053;-64
2022/04/06 11:47:34;;;;;;;3.25;1.00;;;21.20;54.10;;;;;;5031821;28;20041;-64
2022/04/06 11:50:05;;;;;;;1.80;0.90;;;21.20;54.20;;;;;;5032059;28;20068;-64
2022/04/06 11:52:31;;;;;;;2.90;0.80;;;21.20;54.20;;;;;;5031836;28;20392;-64
2022/04/06 11:54:57;;;;;;;3.55;0.93;;;21.20;54.10;;;;;;5031325;28;20045;-64
2022/04/06 11:57:36;;;;;;;3.65;1.25;;;21.20;54.20;;;;;;5032246;28;20044;-64
2022/04/06 12:00:05;;;;;;;3.70;1.08;;;21.20;54.20;;;;;;5031310;28;20042;-64
2022/04/06 12:02:50;;;;;;;2.72;0.88;;;21.20;54.20;;;;;;5031760;28;20407;-64
2022/04/06 12:05:16;;;;;;;1.80;0.80;;;21.20;54.20;;;;;;5028851;28;20057;-65
2022/04/06 12:07:41;;;;;;;3.92;1.00;;;21.20;54.20;;;;;;5020272;28;20049;-64
2022/04/06 12:10:07;;;;;;;3.17;1.05;;;21.20;54.30;;;;;;5021599;28;20489;-64
2022/04/06 12:12:36;;;;;;;2.28;0.80;;;21.30;54.30;;;;;;5015514;28;20038;-63
2022/04/06 12:15:05;;;;;;;3.17;1.00;;;21.30;54.50;;;;;;5023077;28;20504;-64
2022/04/06 12:17:34;;;;;;;3.17;1.00;;;21.30;54.50;;;;;;5030819;28;20045;-63
2022/04/06 12:20:01;;;;;;;4.20;1.00;;;21.30;54.50;;;;;;5031458;28;20041;-63
2022/04/06 12:22:27;;;;;;;3.78;1.25;;;21.30;54.50;;;;;;5032527;28;20076;-63
2022/04/06 12:24:52;;;;;;;3.22;0.85;;;21.30;54.60;;;;;;5035026;28;20099;-63
2022/04/06 12:27:30;;;;;;;2.63;0.80;;;21.30;54.60;;;;;;5035353;28;20096;-63
2022/04/06 12:30:06;;;;;;;4.22;0.95;;;21.30;54.60;;;;;;5034410;28;20127;-64
2022/04/06 12:32:44;;;;;;;2.47;0.90;;;21.30;54.70;;;;;;5035681;28;20049;-64
2022/04/06 12:35:20;;;;;;;3.97;0.95;;;21.30;54.70;;;;;;5024466;28;20050;-64
2022/04/06 12:37:46;;;;;;;2.72;1.00;;;21.30;54.70;;;;;;5032861;28;20052;-63
2022/04/06 12:40:19;;;;;;;3.80;0.90;;;21.30;54.80;;;;;;5033339;28;20126;-64
2022/04/06 12:42:45;;;;;;;3.38;1.00;;;21.30;54.80;;;;;;5033342;28;20045;-63
2022/04/06 12:45:10;;;;;;;3.60;0.90;;;21.30;54.90;;;;;;5035210;28;20057;-63
2022/04/06 12:47:36;;;;;;;3.10;0.93;;;21.30;54.90;;;;;;5034826;28;20049;-64
2022/04/06 12:50:19;;;;;;;3.65;1.13;;;21.30;55.00;;;;;;5034080;28;20133;-63
2022/04/06 12:52:47;;;;;;;1.85;0.75;;;21.30;55.10;;;;;;5034663;28;20053;-63
2022/04/06 12:55:13;;;;;;;2.92;0.80;;;21.30;55.00;;;;;;5034836;28;20057;-64
2022/04/06 12:57:39;;;;;;;3.88;1.00;;;21.30;55.00;;;;;;5034564;28;20049;-63